sensor_id;sensor_type;location;lat;lon;timestamp;pressure;altitude;pressure_sealevel;temperature
43292;BMP280;28754;47.700;7.924;2023-10-09T00:02:27;92178.22;;;21.55
43292;BMP280;28754;47.700;7.924;2023-10-09T00:05:16;92172.53;;;21.53
43292;BMP280;28754;47.700;7.924;2023-10-09T00:08:16;92176.50;;;21.51
43292;BMP280;28754;47.700;7.924;2023-10-09T00:11:08;92177.88;;;21.48
43292;BMP280;28754;47.700;7.924;2023-10-09T00:14:04;92187.84;;;21.46
43292;BMP280;28754;47.700;7.924;2023-10-09T00:16:52;92170.97;;;21.44
43292;BMP280;28754;47.700;7.924;2023-10-09T00:19:50;92167.16;;;21.41
43292;BMP280;28754;47.700;7.924;2023-10-09T00:22:37;92172.06;;;21.43
43292;BMP280;28754;47.700;7.924;2023-10-09T00:25:32;92171.13;;;21.39
43292;BMP280;28754;47.700;7.924;2023-10-09T00:28:22;92172.66;;;21.40
43292;BMP280;28754;47.700;7.924;2023-10-09T00:31:10;92165.59;;;21.40
43292;BMP280;28754;47.700;7.924;2023-10-09T00:34:02;92163.31;;;21.39
43292;BMP280;28754;47.700;7.924;2023-10-09T00:36:51;92163.00;;;21.40
43292;BMP280;28754;47.700;7.924;2023-10-09T00:39:38;92161.47;;;21.39
43292;BMP280;28754;47.700;7.924;2023-10-09T00:42:25;92162.56;;;21.38
43292;BMP280;28754;47.700;7.924;2023-10-09T00:45:16;92165.16;;;21.38
43292;BMP280;28754;47.700;7.924;2023-10-09T00:48:14;92158.41;;;21.37
43292;BMP280;28754;47.700;7.924;2023-10-09T00:51:08;92159.75;;;21.35
43292;BMP280;28754;47.700;7.924;2023-10-09T00:54:07;92145.47;;;21.33
43292;BMP280;28754;47.700;7.924;2023-10-09T00:56:55;92149.16;;;21.32
43292;BMP280;28754;47.700;7.924;2023-10-09T00:59:54;92141.31;;;21.32
43292;BMP280;28754;47.700;7.924;2023-10-09T01:02:47;92151.59;;;21.28
43292;BMP280;28754;47.700;7.924;2023-10-09T01:06:01;92140.72;;;21.26
43292;BMP280;28754;47.700;7.924;2023-10-09T01:08:56;92143.16;;;21.23
43292;BMP280;28754;47.700;7.924;2023-10-09T01:11:55;92142.22;;;21.19
43292;BMP280;28754;47.700;7.924;2023-10-09T01:14:47;92135.78;;;21.16
43292;BMP280;28754;47.700;7.924;2023-10-09T01:17:46;92140.50;;;21.14
43292;BMP280;28754;47.700;7.924;2023-10-09T01:20:33;92131.19;;;21.13
43292;BMP280;28754;47.700;7.924;2023-10-09T01:23:28;92122.91;;;21.11
43292;BMP280;28754;47.700;7.924;2023-10-09T01:26:16;92132.56;;;21.11
43292;BMP280;28754;47.700;7.924;2023-10-09T01:29:02;92118.44;;;21.12
43292;BMP280;28754;47.700;7.924;2023-10-09T01:31:55;92128.09;;;21.11
43292;BMP280;28754;47.700;7.924;2023-10-09T01:34:42;92128.09;;;21.11
43292;BMP280;28754;47.700;7.924;2023-10-09T01:37:30;92127.34;;;21.11
43292;BMP280;28754;47.700;7.924;2023-10-09T01:40:16;92120.88;;;21.08
43292;BMP280;28754;47.700;7.924;2023-10-09T01:43:13;92124.84;;;21.06
43292;BMP280;28754;47.700;7.924;2023-10-09T01:46:05;92119.16;;;21.04
43292;BMP280;28754;47.700;7.924;2023-10-09T01:48:52;92123.91;;;21.02
43292;BMP280;28754;47.700;7.924;2023-10-09T01:51:40;92125.75;;;21.01
43292;BMP280;28754;47.700;7.924;2023-10-09T01:54:27;92122.69;;;20.99
43292;BMP280;28754;47.700;7.924;2023-10-09T01:57:26;92123.00;;;20.98
43292;BMP280;28754;47.700;7.924;2023-10-09T02:00:16;92121.47;;;20.97
43292;BMP280;28754;47.700;7.924;2023-10-09T02:03:09;92119.00;;;20.92
43292;BMP280;28754;47.700;7.924;2023-10-09T02:05:59;92116.69;;;20.91
43292;BMP280;28754;47.700;7.924;2023-10-09T02:08:46;92118.06;;;20.88
43292;BMP280;28754;47.700;7.924;2023-10-09T02:11:35;92110.53;;;20.87
43292;BMP280;28754;47.700;7.924;2023-10-09T02:14:23;92105.66;;;20.85
43292;BMP280;28754;47.700;7.924;2023-10-09T02:17:11;92113.00;;;20.83
43292;BMP280;28754;47.700;7.924;2023-10-09T02:20:04;92112.19;;;20.83
43292;BMP280;28754;47.700;7.924;2023-10-09T02:23:04;92109.44;;;20.79
43292;BMP280;28754;47.700;7.924;2023-10-09T02:25:59;92092.88;;;20.75
43292;BMP280;28754;47.700;7.924;2023-10-09T02:28:54;92105.44;;;20.73
43292;BMP280;28754;47.700;7.924;2023-10-09T02:31:51;92100.84;;;20.70
43292;BMP280;28754;47.700;7.924;2023-10-09T02:34:47;92104.50;;;20.69
43292;BMP280;28754;47.700;7.924;2023-10-09T02:37:37;92108.47;;;20.67
43292;BMP280;28754;47.700;7.924;2023-10-09T02:40:29;92100.47;;;20.64
43292;BMP280;28754;47.700;7.924;2023-10-09T02:43:20;92102.63;;;20.62
43292;BMP280;28754;47.700;7.924;2023-10-09T02:46:07;92108.13;;;20.60
43292;BMP280;28754;47.700;7.924;2023-10-09T02:49:12;92118.81;;;20.59
43292;BMP280;28754;47.700;7.924;2023-10-09T02:52:02;92112.38;;;20.56
43292;BMP280;28754;47.700;7.924;2023-10-09T02:54:53;92099.97;;;20.53
43292;BMP280;28754;47.700;7.924;2023-10-09T02:57:45;92109.09;;;20.51
43292;BMP280;28754;47.700;7.924;2023-10-09T03:00:32;92104.50;;;20.48
43292;BMP280;28754;47.700;7.924;2023-10-09T03:03:22;92111.56;;;20.47
43292;BMP280;28754;47.700;7.924;2023-10-09T03:06:09;92106.94;;;20.44
43292;BMP280;28754;47.700;7.924;2023-10-09T03:08:57;92093.47;;;20.42
43292;BMP280;28754;47.700;7.924;2023-10-09T03:11:47;92086.25;;;20.39
43292;BMP280;28754;47.700;7.924;2023-10-09T03:14:37;92102.16;;;20.38
43292;BMP280;28754;47.700;7.924;2023-10-09T03:17:27;92099.41;;;20.34
43292;BMP280;28754;47.700;7.924;2023-10-09T03:20:15;92094.47;;;20.33
43292;BMP280;28754;47.700;7.924;2023-10-09T03:23:03;92100.28;;;20.30
43292;BMP280;28754;47.700;7.924;2023-10-09T03:25:52;92094.00;;;20.31
43292;BMP280;28754;47.700;7.924;2023-10-09T03:28:39;92092.47;;;20.30
43292;BMP280;28754;47.700;7.924;2023-10-09T03:31:25;92094.00;;;20.31
43292;BMP280;28754;47.700;7.924;2023-10-09T03:34:13;92100.28;;;20.30
43292;BMP280;28754;47.700;7.924;2023-10-09T03:37:00;92090.94;;;20.29
43292;BMP280;28754;47.700;7.924;2023-10-09T03:40:07;92097.22;;;20.28
43292;BMP280;28754;47.700;7.924;2023-10-09T03:42:54;92081.59;;;20.28
43292;BMP280;28754;47.700;7.924;2023-10-09T03:45:41;92090.47;;;20.27
43292;BMP280;28754;47.700;7.924;2023-10-09T03:48:38;92092.28;;;20.27
43292;BMP280;28754;47.700;7.924;2023-10-09T03:51:25;92091.06;;;20.24
43292;BMP280;28754;47.700;7.924;2023-10-09T03:54:12;92093.19;;;20.22
43292;BMP280;28754;47.700;7.924;2023-10-09T03:57:00;92096.41;;;20.19
43292;BMP280;28754;47.700;7.924;2023-10-09T03:59:47;92094.38;;;20.16
43292;BMP280;28754;47.700;7.924;2023-10-09T04:02:33;92098.34;;;20.14
43292;BMP280;28754;47.700;7.924;2023-10-09T04:05:20;92107.50;;;20.11
43292;BMP280;28754;47.700;7.924;2023-10-09T04:08:07;92081.63;;;20.06
43292;BMP280;28754;47.700;7.924;2023-10-09T04:10:58;92085.28;;;20.05
43292;BMP280;28754;47.700;7.924;2023-10-09T04:13:49;92091.56;;;20.04
43292;BMP280;28754;47.700;7.924;2023-10-09T04:16:36;92083.00;;;20.04
43292;BMP280;28754;47.700;7.924;2023-10-09T04:19:37;92088.47;;;20.02
43292;BMP280;28754;47.700;7.924;2023-10-09T04:22:37;92087.25;;;20.00
43292;BMP280;28754;47.700;7.924;2023-10-09T04:25:36;92084.66;;;20.00
43292;BMP280;28754;47.700;7.924;2023-10-09T04:28:29;92094.28;;;19.99
43292;BMP280;28754;47.700;7.924;2023-10-09T04:31:16;92086.78;;;19.98
43292;BMP280;28754;47.700;7.924;2023-10-09T04:34:04;92074.94;;;19.92
43292;BMP280;28754;47.700;7.924;2023-10-09T04:37:10;92085.81;;;19.94
43292;BMP280;28754;47.700;7.924;2023-10-09T04:40:15;92073.72;;;19.90
43292;BMP280;28754;47.700;7.924;2023-10-09T04:43:22;92081.03;;;19.88
43292;BMP280;28754;47.700;7.924;2023-10-09T04:46:08;92086.84;;;19.85
43292;BMP280;28754;47.700;7.924;2023-10-09T04:49:10;92087.41;;;19.82
43292;BMP280;28754;47.700;7.924;2023-10-09T04:52:15;92083.81;;;19.78
43292;BMP280;28754;47.700;7.924;2023-10-09T04:55:24;92088.56;;;19.76
43292;BMP280;28754;47.700;7.924;2023-10-09T04:58:11;92088.25;;;19.77
43292;BMP280;28754;47.700;7.924;2023-10-09T05:01:10;92079.69;;;19.77
43292;BMP280;28754;47.700;7.924;2023-10-09T05:04:01;92092.97;;;19.75
43292;BMP280;28754;47.700;7.924;2023-10-09T05:06:50;92097.69;;;19.73
43292;BMP280;28754;47.700;7.924;2023-10-09T05:09:43;92094.94;;;19.70
43292;BMP280;28754;47.700;7.924;2023-10-09T05:12:42;92088.78;;;19.66
43292;BMP280;28754;47.700;7.924;2023-10-09T05:15:43;92084.16;;;19.63
43292;BMP280;28754;47.700;7.924;2023-10-09T05:18:32;92078.53;;;19.61
43292;BMP280;28754;47.700;7.924;2023-10-09T05:21:32;92090.56;;;19.57
43292;BMP280;28754;47.700;7.924;2023-10-09T05:24:19;92088.53;;;19.54
43292;BMP280;28754;47.700;7.924;2023-10-09T05:27:05;92091.13;;;19.54
43292;BMP280;28754;47.700;7.924;2023-10-09T05:30:05;92089.13;;;19.51
43292;BMP280;28754;47.700;7.924;2023-10-09T05:33:10;92103.16;;;19.50
43292;BMP280;28754;47.700;7.924;2023-10-09T05:36:14;92102.22;;;19.46
43292;BMP280;28754;47.700;7.924;2023-10-09T05:39:17;92102.31;;;19.41
43292;BMP280;28754;47.700;7.924;2023-10-09T05:42:08;92104.75;;;19.38
43292;BMP280;28754;47.700;7.924;2023-10-09T05:44:56;92107.34;;;19.38
43292;BMP280;28754;47.700;7.924;2023-10-09T05:48:03;92108.69;;;19.35
43292;BMP280;28754;47.700;7.924;2023-10-09T05:50:50;92105.63;;;19.33
43292;BMP280;28754;47.700;7.924;2023-10-09T05:53:55;92101.66;;;19.36
43292;BMP280;28754;47.700;7.924;2023-10-09T05:57:19;92110.59;;;19.43
43292;BMP280;28754;47.700;7.924;2023-10-09T06:00:27;92114.03;;;19.52
43292;BMP280;28754;47.700;7.924;2023-10-09T06:03:32;92115.06;;;19.64
43292;BMP280;28754;47.700;7.924;2023-10-09T06:06:37;92105.13;;;19.80
43292;BMP280;28754;47.700;7.924;2023-10-09T06:09:31;92106.63;;;19.94
43292;BMP280;28754;47.700;7.924;2023-10-09T06:12:49;92113.66;;;20.15
43292;BMP280;28754;47.700;7.924;2023-10-09T06:15:39;92114.72;;;20.36
43292;BMP280;28754;47.700;7.924;2023-10-09T06:18:37;92108.59;;;20.62
43292;BMP280;28754;47.700;7.924;2023-10-09T06:21:28;92120.00;;;20.74
43292;BMP280;28754;47.700;7.924;2023-10-09T06:24:34;92119.94;;;20.96
43292;BMP280;28754;47.700;7.924;2023-10-09T06:27:28;92124.75;;;21.11
43292;BMP280;28754;47.700;7.924;2023-10-09T06:30:17;92124.91;;;21.23
43292;BMP280;28754;47.700;7.924;2023-10-09T06:33:04;92121.19;;;21.45
43292;BMP280;28754;47.700;7.924;2023-10-09T06:36:12;92135.81;;;21.97
43292;BMP280;28754;47.700;7.924;2023-10-09T06:39:04;92126.09;;;22.47
43292;BMP280;28754;47.700;7.924;2023-10-09T06:42:09;92123.44;;;22.89
43292;BMP280;28754;47.700;7.924;2023-10-09T06:45:15;92123.56;;;23.30
43292;BMP280;28754;47.700;7.924;2023-10-09T06:48:03;92126.09;;;23.75
43292;BMP280;28754;47.700;7.924;2023-10-09T06:51:15;92126.50;;;24.26
43292;BMP280;28754;47.700;7.924;2023-10-09T06:54:22;92129.09;;;24.78
43292;BMP280;28754;47.700;7.924;2023-10-09T06:57:12;92123.31;;;25.28
43292;BMP280;28754;47.700;7.924;2023-10-09T07:00:05;92127.38;;;25.73
43292;BMP280;28754;47.700;7.924;2023-10-09T07:03:10;92137.03;;;26.20
43292;BMP280;28754;47.700;7.924;2023-10-09T07:06:08;92130.47;;;26.53
43292;BMP280;28754;47.700;7.924;2023-10-09T07:09:10;92119.13;;;26.92
43292;BMP280;28754;47.700;7.924;2023-10-09T07:11:57;92140.88;;;27.19
43292;BMP280;28754;47.700;7.924;2023-10-09T07:14:45;92132.41;;;27.41
43292;BMP280;28754;47.700;7.924;2023-10-09T07:17:32;92141.31;;;27.67
43292;BMP280;28754;47.700;7.924;2023-10-09T07:20:21;92145.00;;;27.96
43292;BMP280;28754;47.700;7.924;2023-10-09T07:23:26;92144.06;;;28.38
43292;BMP280;28754;47.700;7.924;2023-10-09T07:26:18;92146.16;;;28.86
43292;BMP280;28754;47.700;7.924;2023-10-09T07:29:09;92145.31;;;29.41
43292;BMP280;28754;47.700;7.924;2023-10-09T07:32:08;92151.50;;;29.97
43292;BMP280;28754;47.700;7.924;2023-10-09T07:34:58;92153.28;;;30.41
43292;BMP280;28754;47.700;7.924;2023-10-09T07:37:46;92150.81;;;30.83
43292;BMP280;28754;47.700;7.924;2023-10-09T07:40:41;92149.97;;;31.09
43292;BMP280;28754;47.700;7.924;2023-10-09T07:44:06;92151.94;;;31.51
43292;BMP280;28754;47.700;7.924;2023-10-09T07:47:05;92144.34;;;31.89
43292;BMP280;28754;47.700;7.924;2023-10-09T07:50:06;92151.81;;;32.30
43292;BMP280;28754;47.700;7.924;2023-10-09T07:52:58;92149.41;;;32.75
43292;BMP280;28754;47.700;7.924;2023-10-09T07:56:01;92163.22;;;33.15
43292;BMP280;28754;47.700;7.924;2023-10-09T07:58:53;92164.84;;;33.36
43292;BMP280;28754;47.700;7.924;2023-10-09T08:01:45;92157.94;;;33.25
43292;BMP280;28754;47.700;7.924;2023-10-09T08:04:49;92163.13;;;32.87
43292;BMP280;28754;47.700;7.924;2023-10-09T08:07:35;92156.91;;;32.59
43292;BMP280;28754;47.700;7.924;2023-10-09T08:10:22;92163.97;;;32.38
43292;BMP280;28754;47.700;7.924;2023-10-09T08:13:09;92165.47;;;32.35
43292;BMP280;28754;47.700;7.924;2023-10-09T08:16:21;92169.13;;;32.77
43292;BMP280;28754;47.700;7.924;2023-10-09T08:19:10;92170.78;;;33.06
43292;BMP280;28754;47.700;7.924;2023-10-09T08:22:15;92170.72;;;32.85
43292;BMP280;28754;47.700;7.924;2023-10-09T08:25:11;92170.44;;;33.11
43292;BMP280;28754;47.700;7.924;2023-10-09T08:28:14;92162.59;;;33.62
43292;BMP280;28754;47.700;7.924;2023-10-09T08:31:01;92167.97;;;33.97
43292;BMP280;28754;47.700;7.924;2023-10-09T08:33:50;92177.44;;;34.36
43292;BMP280;28754;47.700;7.924;2023-10-09T08:36:45;92170.56;;;34.80
43292;BMP280;28754;47.700;7.924;2023-10-09T08:39:38;92169.47;;;34.36
43292;BMP280;28754;47.700;7.924;2023-10-09T08:42:26;92173.22;;;33.52
43292;BMP280;28754;47.700;7.924;2023-10-09T08:45:21;92169.94;;;32.81
43292;BMP280;28754;47.700;7.924;2023-10-09T08:48:14;92168.19;;;31.89
43292;BMP280;28754;47.700;7.924;2023-10-09T08:51:04;92178.88;;;30.91
43292;BMP280;28754;47.700;7.924;2023-10-09T08:53:53;92180.28;;;30.27
43292;BMP280;28754;47.700;7.924;2023-10-09T08:56:41;92165.84;;;29.73
43292;BMP280;28754;47.700;7.924;2023-10-09T08:59:41;92177.09;;;29.26
43292;BMP280;28754;47.700;7.924;2023-10-09T09:02:31;92179.59;;;28.82
43292;BMP280;28754;47.700;7.924;2023-10-09T09:05:19;92177.75;;;28.48
43292;BMP280;28754;47.700;7.924;2023-10-09T09:08:25;92173.31;;;28.33
43292;BMP280;28754;47.700;7.924;2023-10-09T09:11:20;92171.50;;;28.37
43292;BMP280;28754;47.700;7.924;2023-10-09T09:14:09;92171.50;;;28.37
43292;BMP280;28754;47.700;7.924;2023-10-09T09:17:08;92173.66;;;28.32
43292;BMP280;28754;47.700;7.924;2023-10-09T09:19:57;92172.97;;;28.35
43292;BMP280;28754;47.700;7.924;2023-10-09T09:22:53;92175.88;;;28.64
43292;BMP280;28754;47.700;7.924;2023-10-09T09:25:45;92173.44;;;29.34
43292;BMP280;28754;47.700;7.924;2023-10-09T09:28:34;92163.63;;;29.75
43292;BMP280;28754;47.700;7.924;2023-10-09T09:31:25;92164.44;;;29.79
43292;BMP280;28754;47.700;7.924;2023-10-09T09:34:12;92163.00;;;29.85
43292;BMP280;28754;47.700;7.924;2023-10-09T09:37:04;92153.59;;;29.84
43292;BMP280;28754;47.700;7.924;2023-10-09T09:39:52;92159.69;;;29.88
43292;BMP280;28754;47.700;7.924;2023-10-09T09:42:39;92155.09;;;29.85
43292;BMP280;28754;47.700;7.924;2023-10-09T09:45:35;92162.66;;;29.87
43292;BMP280;28754;47.700;7.924;2023-10-09T09:48:24;92169.13;;;30.41
43292;BMP280;28754;47.700;7.924;2023-10-09T09:51:12;92164.25;;;30.42
43292;BMP280;28754;47.700;7.924;2023-10-09T09:54:02;92162.50;;;30.53
43292;BMP280;28754;47.700;7.924;2023-10-09T09:56:50;92171.28;;;30.32
43292;BMP280;28754;47.700;7.924;2023-10-09T09:59:41;92174.19;;;29.75
43292;BMP280;28754;47.700;7.924;2023-10-09T10:02:38;92174.25;;;29.16
43292;BMP280;28754;47.700;7.924;2023-10-09T10:05:28;92184.47;;;28.80
43292;BMP280;28754;47.700;7.924;2023-10-09T10:08:21;92171.69;;;28.63
43292;BMP280;28754;47.700;7.924;2023-10-09T10:24:01;92170.63;;;27.65
43292;BMP280;28754;47.700;7.924;2023-10-09T10:27:15;92165.84;;;27.56
43292;BMP280;28754;47.700;7.924;2023-10-09T10:30:28;92177.66;;;27.46
43292;BMP280;28754;47.700;7.924;2023-10-09T10:33:19;92167.94;;;27.35
43292;BMP280;28754;47.700;7.924;2023-10-09T10:36:08;92167.50;;;27.33
43292;BMP280;28754;47.700;7.924;2023-10-09T10:39:06;92167.78;;;27.28
43292;BMP280;28754;47.700;7.924;2023-10-09T10:42:05;92165.47;;;27.26
43292;BMP280;28754;47.700;7.924;2023-10-09T10:44:52;92164.28;;;27.24
43292;BMP280;28754;47.700;7.924;2023-10-09T10:47:40;92167.09;;;27.31
43292;BMP280;28754;47.700;7.924;2023-10-09T10:50:28;92166.09;;;27.35
43292;BMP280;28754;47.700;7.924;2023-10-09T10:53:15;92165.56;;;27.30
43292;BMP280;28754;47.700;7.924;2023-10-09T10:56:02;92162.09;;;27.26
43292;BMP280;28754;47.700;7.924;2023-10-09T10:58:57;92160.78;;;27.20
43292;BMP280;28754;47.700;7.924;2023-10-09T11:01:47;92152.91;;;27.05
43292;BMP280;28754;47.700;7.924;2023-10-09T11:04:48;92155.25;;;26.94
43292;BMP280;28754;47.700;7.924;2023-10-09T11:08:09;92156.78;;;26.95
43292;BMP280;28754;47.700;7.924;2023-10-09T11:11:12;92160.34;;;27.03
43292;BMP280;28754;47.700;7.924;2023-10-09T11:14:11;92162.22;;;27.02
43292;BMP280;28754;47.700;7.924;2023-10-09T11:17:18;92158.50;;;27.03
43292;BMP280;28754;47.700;7.924;2023-10-09T11:20:13;92162.66;;;27.04
43292;BMP280;28754;47.700;7.924;2023-10-09T11:23:10;92155.03;;;26.99
43292;BMP280;28754;47.700;7.924;2023-10-09T11:25:57;92160.09;;;26.92
43292;BMP280;28754;47.700;7.924;2023-10-09T11:32:19;92151.97;;;26.97
43292;BMP280;28754;47.700;7.924;2023-10-09T11:35:15;92160.19;;;27.11
43292;BMP280;28754;47.700;7.924;2023-10-09T11:38:07;92151.56;;;27.26
43292;BMP280;28754;47.700;7.924;2023-10-09T11:41:22;92140.56;;;27.51
43292;BMP280;28754;47.700;7.924;2023-10-09T11:44:11;92139.63;;;27.74
43292;BMP280;28754;47.700;7.924;2023-10-09T11:47:07;92148.41;;;27.82
43292;BMP280;28754;47.700;7.924;2023-10-09T11:50:03;92141.78;;;27.88
43292;BMP280;28754;47.700;7.924;2023-10-09T11:52:59;92147.47;;;28.05
43292;BMP280;28754;47.700;7.924;2023-10-09T11:56:04;92131.38;;;28.25
43292;BMP280;28754;47.700;7.924;2023-10-09T11:58:51;92132.13;;;28.26
43292;BMP280;28754;47.700;7.924;2023-10-09T12:01:37;92132.47;;;28.24
43292;BMP280;28754;47.700;7.924;2023-10-09T12:04:28;92127.47;;;28.19
43292;BMP280;28754;47.700;7.924;2023-10-09T12:07:16;92126.84;;;28.07
43292;BMP280;28754;47.700;7.924;2023-10-09T12:10:07;92126.16;;;27.95
43292;BMP280;28754;47.700;7.924;2023-10-09T12:12:56;92117.50;;;27.94
43292;BMP280;28754;47.700;7.924;2023-10-09T12:15:46;92115.03;;;28.01
43292;BMP280;28754;47.700;7.924;2023-10-09T12:18:33;92120.06;;;28.06
43292;BMP280;28754;47.700;7.924;2023-10-09T12:21:21;92115.19;;;28.08
43292;BMP280;28754;47.700;7.924;2023-10-09T12:24:09;92114.78;;;28.06
43292;BMP280;28754;47.700;7.924;2023-10-09T12:26:58;92116.22;;;28.03
43292;BMP280;28754;47.700;7.924;2023-10-09T12:29:46;92114.63;;;27.99
43292;BMP280;28754;47.700;7.924;2023-10-09T12:32:32;92117.34;;;28.02
43292;BMP280;28754;47.700;7.924;2023-10-09T12:35:26;92114.16;;;27.97
43292;BMP280;28754;47.700;7.924;2023-10-09T12:38:14;92107.91;;;27.86
43292;BMP280;28754;47.700;7.924;2023-10-09T12:41:06;92108.19;;;27.81
43292;BMP280;28754;47.700;7.924;2023-10-09T12:44:12;92093.41;;;27.77
43292;BMP280;28754;47.700;7.924;2023-10-09T12:47:02;92093.28;;;27.70
43292;BMP280;28754;47.700;7.924;2023-10-09T12:49:51;92089.38;;;27.64
43292;BMP280;28754;47.700;7.924;2023-10-09T12:52:40;92101.19;;;27.55
43292;BMP280;28754;47.700;7.924;2023-10-09T12:55:28;92094.94;;;27.44
43292;BMP280;28754;47.700;7.924;2023-10-09T12:58:18;92096.25;;;27.38
43292;BMP280;28754;47.700;7.924;2023-10-09T13:01:05;92092.25;;;27.28
43292;BMP280;28754;47.700;7.924;2023-10-09T13:03:58;92088.28;;;27.19
43292;BMP280;28754;47.700;7.924;2023-10-09T13:06:49;92085.50;;;27.12
43292;BMP280;28754;47.700;7.924;2023-10-09T13:09:40;92081.47;;;27.03
43292;BMP280;28754;47.700;7.924;2023-10-09T13:12:29;92089.91;;;26.93
43292;BMP280;28754;47.700;7.924;2023-10-09T13:15:16;92088.88;;;26.82
43292;BMP280;28754;47.700;7.924;2023-10-09T13:18:07;92081.19;;;26.77
43292;BMP280;28754;47.700;7.924;2023-10-09T13:20:54;92078.06;;;26.72
43292;BMP280;28754;47.700;7.924;2023-10-09T13:23:40;92082.56;;;26.71
43292;BMP280;28754;47.700;7.924;2023-10-09T13:26:33;92079.91;;;26.71
43292;BMP280;28754;47.700;7.924;2023-10-09T13:29:21;92078.06;;;26.72
43292;BMP280;28754;47.700;7.924;2023-10-09T13:32:10;92067.53;;;26.72
43292;BMP280;28754;47.700;7.924;2023-10-09T13:35:02;92065.88;;;26.79
43292;BMP280;28754;47.700;7.924;2023-10-09T13:37:49;92059.81;;;26.91
43292;BMP280;28754;47.700;7.924;2023-10-09T13:40:42;92057.44;;;27.16
43292;BMP280;28754;47.700;7.924;2023-10-09T13:43:28;92051.44;;;27.34
43292;BMP280;28754;47.700;7.924;2023-10-09T13:46:15;92057.28;;;27.74
43292;BMP280;28754;47.700;7.924;2023-10-09T13:49:04;92052.81;;;27.93
43292;BMP280;28754;47.700;7.924;2023-10-09T13:52:00;92059.16;;;27.92
43292;BMP280;28754;47.700;7.924;2023-10-09T13:54:49;92054.38;;;27.79
43292;BMP280;28754;47.700;7.924;2023-10-09T13:57:36;92056.91;;;27.75
43292;BMP280;28754;47.700;7.924;2023-10-09T14:00:23;92045.22;;;27.73
43292;BMP280;28754;47.700;7.924;2023-10-09T14:03:20;92040.97;;;27.68
43292;BMP280;28754;47.700;7.924;2023-10-09T14:06:13;92035.66;;;27.50
43292;BMP280;28754;47.700;7.924;2023-10-09T14:09:04;92035.75;;;27.38
43292;BMP280;28754;47.700;7.924;2023-10-09T14:11:51;92034.59;;;27.35
43292;BMP280;28754;47.700;7.924;2023-10-09T14:14:40;92034.91;;;27.34
43292;BMP280;28754;47.700;7.924;2023-10-09T14:17:33;92036.63;;;27.42
43292;BMP280;28754;47.700;7.924;2023-10-09T14:20:20;92023.97;;;27.32
43292;BMP280;28754;47.700;7.924;2023-10-09T14:23:16;92023.81;;;27.25
43292;BMP280;28754;47.700;7.924;2023-10-09T14:26:07;92028.25;;;27.06
43292;BMP280;28754;47.700;7.924;2023-10-09T14:28:56;92025.53;;;26.87
43292;BMP280;28754;47.700;7.924;2023-10-09T14:31:44;92023.59;;;26.84
43292;BMP280;28754;47.700;7.924;2023-10-09T14:34:35;92027.25;;;26.80
43292;BMP280;28754;47.700;7.924;2023-10-09T14:37:23;92020.28;;;27.02
43292;BMP280;28754;47.700;7.924;2023-10-09T14:40:10;92009.38;;;27.34
43292;BMP280;28754;47.700;7.924;2023-10-09T14:42:59;92009.13;;;27.73
43292;BMP280;28754;47.700;7.924;2023-10-09T14:45:47;92006.84;;;28.06
43292;BMP280;28754;47.700;7.924;2023-10-09T14:48:39;92016.78;;;28.34
43292;BMP280;28754;47.700;7.924;2023-10-09T14:51:27;92009.97;;;28.33
43292;BMP280;28754;47.700;7.924;2023-10-09T14:54:14;92012.91;;;28.29
43292;BMP280;28754;47.700;7.924;2023-10-09T14:57:04;92005.78;;;28.10
43292;BMP280;28754;47.700;7.924;2023-10-09T14:59:52;92012.19;;;27.94
43292;BMP280;28754;47.700;7.924;2023-10-09T15:02:40;92014.81;;;27.75
43292;BMP280;28754;47.700;7.924;2023-10-09T15:05:26;92016.03;;;27.62
43292;BMP280;28754;47.700;7.924;2023-10-09T15:08:14;92013.88;;;27.49
43292;BMP280;28754;47.700;7.924;2023-10-09T15:11:00;92016.59;;;27.37
43292;BMP280;28754;47.700;7.924;2023-10-09T15:13:47;92014.38;;;27.24
43292;BMP280;28754;47.700;7.924;2023-10-09T15:16:34;92011.19;;;27.15
43292;BMP280;28754;47.700;7.924;2023-10-09T15:19:21;92011.50;;;27.14
43292;BMP280;28754;47.700;7.924;2023-10-09T15:22:16;92005.50;;;27.13
43292;BMP280;28754;47.700;7.924;2023-10-09T15:25:09;92011.94;;;27.16
43292;BMP280;28754;47.700;7.924;2023-10-09T15:28:03;91986.66;;;27.11
43292;BMP280;28754;47.700;7.924;2023-10-09T15:30:52;92000.94;;;27.10
43292;BMP280;28754;47.700;7.924;2023-10-09T15:33:40;92007.13;;;27.02
43292;BMP280;28754;47.700;7.924;2023-10-09T15:36:28;91998.31;;;26.95
43292;BMP280;28754;47.700;7.924;2023-10-09T15:39:19;91998.56;;;26.90
43292;BMP280;28754;47.700;7.924;2023-10-09T15:42:06;92000.69;;;26.85
43292;BMP280;28754;47.700;7.924;2023-10-09T15:44:55;92008.38;;;26.78
43292;BMP280;28754;47.700;7.924;2023-10-09T15:47:42;92007.75;;;26.69
43292;BMP280;28754;47.700;7.924;2023-10-09T15:50:29;92001.91;;;26.60
43292;BMP280;28754;47.700;7.924;2023-10-09T15:53:15;92004.38;;;26.53
43292;BMP280;28754;47.700;7.924;2023-10-09T15:56:05;92015.03;;;26.45
43292;BMP280;28754;47.700;7.924;2023-10-09T15:58:53;92006.56;;;26.36
43292;BMP280;28754;47.700;7.924;2023-10-09T16:01:40;92003.91;;;26.21
43292;BMP280;28754;47.700;7.924;2023-10-09T16:04:29;92007.22;;;26.06
43292;BMP280;28754;47.700;7.924;2023-10-09T16:07:20;92010.22;;;25.92
43292;BMP280;28754;47.700;7.924;2023-10-09T16:10:07;92016.25;;;25.81
43292;BMP280;28754;47.700;7.924;2023-10-09T16:12:55;92021.13;;;25.67
43292;BMP280;28754;47.700;7.924;2023-10-09T16:15:44;92006.94;;;25.56
43292;BMP280;28754;47.700;7.924;2023-10-09T16:18:31;92006.28;;;25.48
43292;BMP280;28754;47.700;7.924;2023-10-09T16:21:19;92008.28;;;25.39
43292;BMP280;28754;47.700;7.924;2023-10-09T16:24:07;92008.47;;;25.34
43292;BMP280;28754;47.700;7.924;2023-10-09T16:26:56;92009.81;;;25.28
43292;BMP280;28754;47.700;7.924;2023-10-09T16:29:45;92018.25;;;25.21
43292;BMP280;28754;47.700;7.924;2023-10-09T16:32:36;92020.53;;;25.11
43292;BMP280;28754;47.700;7.924;2023-10-09T16:35:24;92014.66;;;25.02
43292;BMP280;28754;47.700;7.924;2023-10-09T16:38:11;92019.22;;;24.93
43292;BMP280;28754;47.700;7.924;2023-10-09T16:41:00;92014.81;;;24.85
43292;BMP280;28754;47.700;7.924;2023-10-09T16:43:54;92016.78;;;24.77
43292;BMP280;28754;47.700;7.924;2023-10-09T16:46:46;92022.66;;;24.74
43292;BMP280;28754;47.700;7.924;2023-10-09T16:49:33;92017.97;;;24.67
43292;BMP280;28754;47.700;7.924;2023-10-09T16:52:20;92014.03;;;24.61